Latest Coastal Weather Observations for Neptune Island

IDT60701

Issued at 5:52 am EST Friday 24 May 2019 (issued every 10 minutes, with the page automatically refreshed every 10 minutes)

About coastal observations | Map of coastal stations | Coastal observations for TAS | Marine services | Other Formats
Station Details ID: 018115 Name: NEPTUNE ISLAND Lat: -35.34 Lon: 136.12 Height: 32.0 m
Data from the previous 72 hours. | See also: Recent months at Neptune Island
Date/Time
EST
Wind Sea
Height
m
Swell Vis
km
Cloud Weather Temp
°C
Press
hPa
Rain since
9am
mm
Dir  Spd
kts
Gust
kts
Height
m
Period
s
Dir
24/05:30am NW 19 22 - - - - - - - 18.2 1013.7 -
24/05:00am NNW 12 14 - - - - - - - 18.6 1013.7 -
24/04:30am N 16 21 - - - - - - - 18.7 1013.0 -
24/03:30am N 20 24 - - - - - - - 18.7 1013.7 0.6
24/03:00am N 19 23 - - - - - - - 18.6 1014.2 -
24/02:30am N 22 26 - - - - - - - 18.8 1014.9 -
24/02:04am N 25 35 - - - - - - - 19.1 1015.7 -
24/02:00am N 24 30 - - - - - - - 19.3 1015.6 -
24/01:30am N 26 31 - - - - - - - 18.6 1015.6 -
24/01:00am N 28 34 - - - - - - - 18.6 1015.7 -
24/12:32am N 34 44 - - - - - - - 18.9 1014.9 -
24/12:30am N 34 43 - - - - - - Recent precip. 18.5 1015.4 -
24/12:21am N 26 38 - - - - - - - 17.9 1015.7 -
24/12:18am N 23 34 - - - - - - - 17.9 1015.9 -
24/12:00am NNE 23 28 - - - - - - - 17.6 1015.0 -
 
Date/Time
EST
Wind Sea
Height
m
Swell Vis
km
Cloud Weather Temp
°C
Press
hPa
Rain since
9am
mm
Dir  Spd
kts
Gust
kts
Height
m
Period
s
Dir
23/11:56pm NNE 22 28 - - - - - - - 17.6 1015.1 -
23/11:30pm NNE 9 14 - - - - - - - 17.5 1016.8 -
23/11:00pm NNE 23 27 - - - - - - - 17.3 1016.1 -
23/10:30pm NNE 21 23 - - - - - - - 17.6 1016.5 -
23/10:00pm NE 18 22 - - - - - - - 17.5 1016.6 -
23/09:30pm NE 11 14 - - - - - - - 17.4 1017.0 -
23/09:00pm NE 9 13 - - - - - - - 17.3 1017.5 -
23/08:30pm NE 11 15 - - - - - - - 17.2 1017.6 -
23/08:00pm NE 11 14 - - - - - - - 17.2 1017.9 -
23/07:30pm NE 14 17 - - - - - - - 17.0 1018.2 -
23/07:00pm NE 10 14 - - - - - - - 17.2 1018.2 -
23/06:30pm ENE 7 9 - - - - - - - 17.2 1018.2 -
23/06:00pm ENE 7 8 - - - - - - - 17.1 1018.1 -
23/05:30pm NNE 7 9 - - - - - - - 17.3 1018.5 0.0
23/05:00pm N 8 9 - - - - - - - 17.8 1018.7 0.0
23/04:30pm NNW 8 9 - - - - - - - 18.1 1018.8 0.0
23/04:00pm N 9 11 - - - - - - - 18.3 1018.7 0.0
23/03:30pm N 8 10 - - - - - - - 18.5 1018.7 0.0
23/03:00pm N 9 10 - - - - - - - 18.4 1019.0 0.0
23/02:30pm NNW 9 11 - - - - - - - 17.9 1019.4 0.0
23/02:00pm NNW 9 10 - - - - - - - 17.8 1019.9 0.0
23/01:30pm NW 8 10 - - - - - - - 17.8 1020.3 0.0
23/01:00pm NW 10 12 - - - - - - - 18.3 1021.0 0.0
23/12:30pm NNW 9 11 - - - - - - - 18.0 1021.0 0.0
23/12:00pm NNW 9 10 - - - - - - - 17.8 1021.3 0.0
23/11:30am NNW 9 10 - - - - - - - 17.7 1021.7 0.0
23/11:00am N 8 9 - - - - - - - 17.5 1021.9 0.0
23/10:30am N 7 10 - - - - - - - 17.3 1022.3 0.0
23/10:00am NNE 8 10 - - - - - - - 16.8 1022.4 0.0
23/09:30am NNE 8 9 - - - - - - - 16.5 1022.4 -
23/09:00am NNE 8 10 - - - - - - - 16.4 1022.6 -
23/08:30am NNE 10 12 - - - - - - - 15.7 1022.4 -
23/08:00am N 10 11 - - - - - - - 15.3 1022.5 -
23/07:30am NNE 9 11 - - - - - - - 15.3 1022.5 -
23/07:00am NNE 8 9 - - - - - - - 15.3 1022.4 -
23/06:30am - - - - - - - - - - 15.3 1022.4 -
23/06:00am NE 8 10 - - - - - - - 15.3 1022.3 -
23/05:30am NE 8 10 - - - - - - - 15.3 1022.4 -
23/05:00am NE 9 12 - - - - - - - 15.1 1022.5 -
23/04:00am ENE 10 13 - - - - - - - 15.2 1023.1 -
23/03:30am ENE 12 14 - - - - - - - 15.5 1023.3 -
23/03:00am ENE 11 13 - - - - - - - 15.5 1023.6 -
23/02:30am ENE 10 11 - - - - - - - 15.5 1023.9 -
23/01:30am ENE 9 11 - - - - - - - 15.5 1024.4 -
23/01:00am E 8 10 - - - - - - - 14.8 1024.5 -
23/12:30am E 7 9 - - - - - - - 14.4 1024.8 -
23/12:00am SE 7 9 - - - - - - - 14.5 1025.1 -
 
Date/Time
EST
Wind Sea
Height
m
Swell Vis
km
Cloud Weather Temp
°C
Press
hPa
Rain since
9am
mm
Dir  Spd
kts
Gust
kts
Height
m
Period
s
Dir
22/11:30pm SE 7 9 - - - - - - - 14.5 1025.4 -
22/11:00pm SE 8 9 - - - - - - - 14.6 1025.6 -
22/10:30pm - - - - - - - - - - 14.7 1025.8 -
22/10:00pm SE 8 9 - - - - - - - 14.5 1025.8 -
22/09:30pm SSE 7 8 - - - - - - - 14.7 1026.1 0.0
22/09:00pm SE 7 8 - - - - - - - 14.4 1026.1 0.0
22/08:30pm SSE 7 8 - - - - - - - 14.6 1026.1 0.0
22/08:00pm SSE 6 8 - - - - - - - 14.6 1026.0 0.0
22/07:30pm SSE 5 6 - - - - - - - 14.5 1026.0 0.0
22/07:00pm SSE 5 7 - - - - - - - 14.8 1025.8 0.0
22/06:30pm S 5 7 - - - - - - - 14.8 1025.7 0.0
22/06:00pm S 5 6 - - - - - - - 15.4 1025.5 0.0
22/05:30pm S 5 6 - - - - - - - 15.7 1025.5 0.0
22/05:00pm S 6 7 - - - - - - - 16.2 1025.4 0.0
22/04:30pm SSE 5 7 - - - - - - - 16.4 1025.5 0.0
22/04:00pm S 5 7 - - - - - - - 16.7 1025.5 0.0
22/03:30pm SSW 5 7 - - - - - - - 16.8 1025.6 0.0
22/03:00pm S 4 6 - - - - - - - 17.0 1025.8 0.0
22/02:30pm SSE 5 7 - - - - - - - 16.9 1026.0 0.0
22/02:00pm S 5 6 - - - - - - - 17.0 1026.2 0.0
22/01:30pm S 4 6 - - - - - - - 17.0 1026.5 0.0
22/01:00pm SSE 5 7 - - - - - - - 17.1 1026.9 0.0
22/12:30pm S 5 7 - - - - - - - 17.5 1027.3 0.0
22/12:00pm S 5 7 - - - - - - - 16.9 1027.7 0.0
22/11:30am S 4 6 - - - - - - - 17.0 1027.9 0.0
22/11:00am S 5 6 - - - - - - - 16.7 1027.9 0.0
22/10:30am SSW 6 8 - - - - - - - 16.4 1027.8 0.0
22/10:00am S 7 9 - - - - - - - 16.2 1027.8 0.0
22/09:30am SSW 7 8 - - - - - - - 15.7 1027.6 -
22/09:00am SSW 7 8 - - - - - - - 15.4 1027.4 -
22/08:30am SSW 7 9 - - - - - - - 15.1 1027.2 -
22/08:00am SSW 7 11 - - - - - - - 14.8 1026.8 -
22/07:30am SSW 7 9 - - - - - - - 14.6 1026.5 -
22/07:00am SSW 6 8 - - - - - - - 14.6 1026.2 -
22/06:30am SW 6 8 - - - - - - - 14.7 1025.8 -
22/06:00am SW 7 10 - - - - - - - 15.0 1025.7 -
22/05:30am SW 7 10 - - - - - - - 14.8 1025.4 -
22/05:00am SW 7 9 - - - - - - - 14.9 1025.4 -
22/04:30am WSW 9 11 - - - - - - - 15.2 1025.4 -
22/04:00am SW 10 13 - - - - - - - 15.1 1025.3 -
22/03:30am SW 9 11 - - - - - - - 15.2 1025.2 0.0
22/03:00am SW 9 10 - - - - - - - 15.3 1025.0 -
22/02:30am SW 9 11 - - - - - - - 15.5 1024.9 -
22/02:00am SW 8 11 - - - - - - - 15.7 1024.8 -
22/01:30am WSW 9 11 - - - - - - - 15.9 1024.7 -
22/01:00am SW 9 11 - - - - - - - 16.0 1024.6 -
22/12:30am WSW 8 10 - - - - - - - 15.9 1024.4 -
22/12:00am SW 8 9 - - - - - - - 16.0 1024.3 -
 
Date/Time
EST
Wind Sea
Height
m
Swell Vis
km
Cloud Weather Temp
°C
Press
hPa
Rain since
9am
mm
Dir  Spd
kts
Gust
kts
Height
m
Period
s
Dir
21/11:30pm SW 9 10 - - - - - - - 16.1 1024.2 -
21/11:00pm SW 10 12 - - - - - - - 16.5 1024.3 -
21/10:30pm SW 8 10 - - - - - - - 16.4 1024.2 -
21/10:00pm SW 9 11 - - - - - - - 16.6 1023.9 -
21/09:30pm SW 9 10 - - - - - - - 16.6 1023.7 0.0
21/09:00pm SW 9 11 - - - - - - - 16.9 1023.5 -
21/08:30pm WSW 7 8 - - - - - - - 17.0 1023.2 -
21/08:00pm WSW 7 8 - - - - - - - 17.1 1022.8 -
21/07:30pm NW 8 9 - - - - - - - 17.3 1022.5 -
21/07:00pm NW 7 8 - - - - - - - 17.3 1022.2 -
21/06:30pm NW 8 9 - - - - - - - 17.5 1021.9 -
21/06:00pm NW 8 9 - - - - - - - 17.7 1021.7 -
21/05:30pm NW 9 11 - - - - - - - 18.1 1021.5 -
21/05:00pm NW 9 10 - - - - - - - 18.7 1021.3 -
21/04:30pm NW 8 9 - - - - - - - 18.9 1021.1 -
21/04:00pm NW 8 10 - - - - - - - 19.1 1020.8 -
21/03:30pm NW 9 11 - - - - - - - 19.3 1020.6 -
21/03:00pm NW 9 11 - - - - - - - 19.2 1020.4 -
21/02:30pm NW 9 11 - - - - - - - 19.3 1020.3 -
21/02:00pm NW 11 13 - - - - - - - 19.4 1020.4 -
21/01:30pm NW 10 12 - - - - - - - 19.3 1020.6 -
21/01:00pm NW 10 12 - - - - - - - 19.2 1020.9 -
21/12:30pm NW 11 13 - - - - - - - 18.8 1021.2 -
21/12:00pm NNW 10 12 - - - - - - - 19.2 1021.4 -
21/11:00am N 11 13 - - - - - - - 18.5 1021.4 -
21/10:30am N 11 13 - - - - - - - 18.5 1021.4 -
21/09:30am N 10 11 - - - - - - - 17.5 1021.2 -
21/09:00am N 11 13 - - - - - - - 16.5 1020.9 -
21/08:30am N 11 13 - - - - - - - 16.0 1020.4 -
21/08:00am N 10 12 - - - - - - - 15.8 1020.3 -
21/06:30am - - - - - - - - - - 15.5 1019.6 -

Other formats

Comma delimited format used in spreadsheet applications
http://www.bom.gov.au/fwo/IDT60701/IDT60701.94804.axf

JavaScript Object Notation format (JSON) in row-major order
http://www.bom.gov.au/fwo/IDT60701/IDT60701.94804.json

Data quality

Most of these data are generated automatically and are frequently updated. Quality checks on data are not normally performed. It is possible for incorrect values to appear. Refer to information at About Latest Weather Observations and please check the disclaimer before using these data.